createdAt,value
2017-11-30T00:01:14.187Z,92.80
2017-11-30T00:03:41.365Z,92.90
2017-11-30T00:06:08.552Z,92.80
2017-11-30T00:08:34.989Z,92.80
2017-11-30T00:11:02.144Z,92.80
2017-11-30T00:13:28.576Z,92.80
2017-11-30T00:15:55.705Z,92.90
2017-11-30T00:18:22.881Z,92.90
2017-11-30T00:20:49.300Z,92.90
2017-11-30T00:23:15.722Z,93.00
2017-11-30T00:25:42.217Z,92.80
2017-11-30T00:28:09.393Z,92.20
2017-11-30T00:30:36.785Z,92.10
2017-11-30T00:33:03.234Z,92.00
2017-11-30T00:35:29.718Z,92.00
2017-11-30T00:37:56.135Z,91.70
2017-11-30T00:40:23.279Z,91.60
2017-11-30T00:43:02.557Z,91.30
2017-11-30T00:45:29.026Z,91.30
2017-11-30T00:47:55.458Z,91.40
2017-11-30T00:50:21.896Z,91.40
2017-11-30T00:52:48.341Z,91.20
2017-11-30T00:55:15.506Z,91.20
2017-11-30T00:57:42.669Z,91.20
2017-11-30T01:00:09.051Z,91.20
2017-11-30T01:02:35.453Z,90.90
2017-11-30T01:05:01.829Z,90.70
2017-11-30T01:07:29.737Z,90.80
2017-11-30T01:09:56.129Z,90.70
2017-11-30T01:12:23.269Z,90.80
2017-11-30T01:14:49.664Z,90.80
2017-11-30T01:17:16.097Z,90.80
2017-11-30T01:19:42.486Z,90.80
2017-11-30T01:22:09.620Z,91.10
2017-11-30T01:24:36.806Z,91.20
2017-11-30T01:27:03.211Z,91.10
2017-11-30T01:29:29.569Z,91.10
2017-11-30T01:31:55.957Z,91.10
2017-11-30T01:34:22.366Z,90.90
2017-11-30T01:36:48.759Z,90.80
2017-11-30T01:39:15.873Z,90.60
2017-11-30T01:41:42.999Z,90.20
2017-11-30T01:44:09.397Z,90.50
2017-11-30T01:46:35.762Z,90.30
2017-11-30T01:49:02.149Z,90.50
2017-11-30T01:51:29.283Z,90.30
2017-11-30T01:53:56.424Z,90.30
2017-11-30T01:56:22.879Z,90.40
2017-11-30T01:58:50.013Z,90.30
2017-11-30T02:01:17.145Z,90.10
2017-11-30T02:03:43.559Z,90.10
2017-11-30T02:06:10.056Z,90.30
2017-11-30T02:08:36.467Z,90.10
2017-11-30T02:11:03.585Z,90.10
2017-11-30T02:13:29.968Z,90.10
2017-11-30T02:15:56.346Z,90.10
2017-11-30T02:18:22.788Z,90.10
2017-11-30T02:20:49.220Z,89.80
2017-11-30T02:23:15.648Z,90.00
2017-11-30T02:25:42.088Z,90.10
2017-11-30T02:28:09.283Z,89.70
2017-11-30T02:30:35.700Z,89.70
2017-11-30T02:33:02.882Z,90.00
2017-11-30T02:35:29.340Z,90.00
2017-11-30T02:37:55.813Z,89.90
2017-11-30T02:40:23.023Z,90.00
2017-11-30T02:42:49.462Z,90.00
2017-11-30T02:45:15.920Z,90.20
2017-11-30T02:47:43.125Z,90.30
2017-11-30T02:50:09.563Z,90.30
2017-11-30T02:52:36.000Z,90.30
2017-11-30T02:55:02.442Z,90.40
2017-11-30T02:57:28.863Z,90.50
2017-11-30T02:59:55.300Z,90.70
2017-11-30T03:02:21.712Z,90.60
2017-11-30T03:04:48.133Z,90.40
2017-11-30T03:07:14.596Z,90.50
2017-11-30T03:09:41.061Z,90.40
2017-11-30T03:12:07.510Z,90.40
2017-11-30T03:14:34.653Z,90.70
2017-11-30T03:17:01.776Z,90.60
2017-11-30T03:19:28.182Z,90.60
2017-11-30T03:21:54.603Z,90.50
2017-11-30T03:24:21.023Z,90.50
2017-11-30T03:26:47.478Z,90.80
2017-11-30T03:29:13.888Z,90.80
2017-11-30T03:31:40.296Z,91.10
2017-11-30T03:34:07.470Z,90.90
2017-11-30T03:36:33.906Z,90.90
2017-11-30T03:39:00.332Z,90.90
2017-11-30T03:41:26.747Z,90.70
2017-11-30T03:43:53.932Z,90.50
2017-11-30T03:46:20.379Z,90.50
2017-11-30T03:48:46.804Z,90.40
2017-11-30T03:51:13.181Z,90.30
2017-11-30T03:53:39.605Z,90.10
2017-11-30T03:56:06.032Z,90.10
2017-11-30T03:58:32.453Z,90.10
2017-11-30T04:00:58.883Z,90.00
2017-11-30T04:03:25.289Z,89.80
2017-11-30T04:05:51.680Z,90.00
2017-11-30T04:08:18.085Z,89.80
2017-11-30T04:10:44.729Z,89.70
2017-11-30T04:13:11.168Z,89.90
2017-11-30T04:15:37.564Z,89.80
2017-11-30T04:18:03.963Z,89.50
2017-11-30T04:20:31.095Z,89.80
2017-11-30T04:22:57.493Z,89.80
2017-11-30T04:25:23.898Z,90.10
2017-11-30T04:27:50.271Z,90.10
2017-11-30T04:30:16.654Z,90.10
2017-11-30T04:32:43.805Z,90.20
2017-11-30T04:35:10.216Z,90.20
2017-11-30T04:37:37.386Z,90.40
2017-11-30T04:40:03.819Z,90.40
2017-11-30T04:42:30.210Z,90.40
2017-11-30T04:44:56.603Z,90.30
2017-11-30T04:47:22.982Z,90.30
2017-11-30T04:49:49.417Z,90.30
2017-11-30T04:52:15.803Z,90.20
2017-11-30T04:54:42.237Z,90.20
2017-11-30T04:57:08.686Z,90.30
2017-11-30T04:59:35.104Z,90.30
2017-11-30T05:02:01.484Z,90.40
2017-11-30T05:04:28.657Z,90.50
2017-11-30T05:06:55.086Z,90.50
2017-11-30T05:09:21.552Z,90.40
2017-11-30T05:11:48.014Z,90.40
2017-11-30T05:14:16.060Z,90.40
2017-11-30T05:16:42.490Z,90.40
2017-11-30T05:19:08.894Z,90.40
2017-11-30T05:21:36.041Z,90.60
2017-11-30T05:24:02.453Z,90.60
2017-11-30T05:26:29.626Z,90.40
2017-11-30T05:28:56.031Z,90.40
2017-11-30T05:31:23.351Z,90.50
2017-11-30T05:33:49.769Z,90.50
2017-11-30T05:36:16.174Z,90.50
2017-11-30T05:38:42.572Z,90.50
2017-11-30T05:41:08.960Z,90.50
2017-11-30T06:31:39.635Z,91.40
2017-11-30T06:34:06.152Z,91.40
2017-11-30T06:36:32.711Z,91.60
2017-11-30T06:38:59.123Z,91.40
2017-11-30T06:41:25.595Z,91.30
2017-11-30T06:43:52.008Z,91.10
2017-11-30T06:46:18.431Z,90.90
2017-11-30T06:48:44.870Z,91.00
2017-11-30T06:51:11.262Z,90.70
2017-11-30T06:53:37.653Z,90.70
2017-11-30T06:56:04.078Z,90.70
2017-11-30T06:58:30.503Z,90.80
2017-11-30T07:00:56.899Z,90.30
2017-11-30T07:03:23.293Z,90.40
2017-11-30T07:05:50.416Z,90.50
2017-11-30T07:08:17.573Z,90.60
2017-11-30T07:10:43.965Z,90.60
2017-11-30T07:13:10.341Z,90.50
2017-11-30T07:15:36.711Z,90.60
2017-11-30T07:18:03.114Z,90.50
2017-11-30T07:20:29.493Z,90.60
2017-11-30T07:22:55.911Z,90.50
2017-11-30T07:25:23.053Z,90.80
2017-11-30T07:27:49.460Z,90.80
2017-11-30T07:30:16.646Z,90.60
2017-11-30T07:32:43.118Z,90.60
2017-11-30T07:35:09.551Z,90.40
2017-11-30T07:37:36.080Z,90.50
2017-11-30T07:40:02.561Z,90.40
2017-11-30T07:42:29.711Z,90.30
2017-11-30T07:44:56.846Z,90.30
2017-11-30T07:47:23.994Z,90.60
2017-11-30T07:49:51.127Z,90.30
2017-11-30T07:52:17.504Z,90.30
2017-11-30T07:54:43.881Z,90.50
2017-11-30T07:57:10.309Z,90.70
2017-11-30T07:59:36.685Z,90.60
2017-11-30T08:02:03.816Z,90.20
2017-11-30T08:04:30.950Z,90.30
2017-11-30T08:06:57.372Z,90.40
2017-11-30T08:09:23.725Z,90.30
2017-11-30T08:11:50.121Z,90.50
2017-11-30T08:14:16.544Z,90.30
2017-11-30T08:16:42.932Z,90.50
2017-11-30T08:19:09.416Z,90.60
2017-11-30T08:21:35.815Z,90.70
2017-11-30T08:24:02.977Z,90.50
2017-11-30T08:26:29.398Z,90.60
2017-11-30T08:28:56.578Z,90.50
2017-11-30T08:31:23.008Z,90.50
2017-11-30T08:33:49.427Z,90.40
2017-11-30T08:36:15.853Z,90.30
2017-11-30T08:38:42.283Z,90.20
2017-11-30T08:41:08.660Z,90.20
2017-11-30T08:43:35.120Z,90.00
2017-11-30T08:46:01.550Z,90.10
2017-11-30T08:48:27.973Z,90.10
2017-11-30T08:50:54.343Z,90.10
2017-11-30T08:53:20.715Z,90.10
2017-11-30T08:55:47.126Z,90.10
2017-11-30T08:58:13.573Z,90.30
2017-11-30T09:00:39.979Z,90.00
2017-11-30T09:03:06.427Z,90.10
2017-11-30T09:05:32.835Z,90.10
2017-11-30T09:07:59.280Z,90.00
2017-11-30T09:10:25.630Z,90.00
2017-11-30T09:12:52.015Z,90.00
2017-11-30T09:15:19.165Z,90.30
2017-11-30T09:17:46.303Z,90.00
2017-11-30T09:20:12.692Z,90.00
2017-11-30T09:22:39.132Z,90.00
2017-11-30T09:25:05.526Z,90.00
2017-11-30T09:27:32.696Z,90.10
2017-11-30T09:29:59.094Z,90.10
2017-11-30T09:32:26.232Z,90.40
2017-11-30T09:34:52.611Z,90.40
2017-11-30T09:37:19.062Z,90.60
2017-11-30T09:39:45.518Z,90.30
2017-11-30T09:42:11.937Z,90.40
2017-11-30T09:44:38.325Z,90.40
2017-11-30T09:47:04.707Z,90.50
2017-11-30T09:49:31.173Z,90.50
2017-11-30T09:51:58.413Z,90.80
2017-11-30T09:54:24.840Z,90.50
2017-11-30T09:56:51.280Z,90.40
2017-11-30T09:59:17.667Z,90.40
2017-11-30T10:01:44.098Z,90.50
2017-11-30T10:04:10.532Z,90.30
2017-11-30T10:06:36.964Z,90.20
2017-11-30T10:09:03.457Z,90.30
2017-11-30T10:11:30.603Z,90.40
2017-11-30T10:13:57.736Z,90.70
2017-11-30T10:16:24.114Z,90.70
2017-11-30T10:18:50.534Z,90.70
2017-11-30T10:21:16.911Z,90.50
2017-11-30T10:23:43.298Z,90.50
2017-11-30T10:26:10.425Z,90.70
2017-11-30T10:28:37.555Z,90.70
2017-11-30T10:31:03.928Z,90.70
2017-11-30T10:33:30.341Z,91.00
2017-11-30T10:35:56.731Z,91.00
2017-11-30T10:38:23.218Z,90.80
2017-11-30T10:40:50.336Z,90.60
2017-11-30T10:43:16.697Z,90.60
2017-11-30T10:45:43.821Z,90.50
2017-11-30T10:48:11.001Z,90.40
2017-11-30T10:50:37.376Z,90.40
2017-11-30T14:29:44.310Z,95.20
2017-11-30T14:32:11.512Z,94.50
2017-11-30T14:34:37.968Z,94.50
2017-11-30T14:37:04.417Z,93.10
2017-11-30T14:39:32.343Z,90.90
2017-11-30T14:41:58.790Z,91.20
2017-11-30T14:44:25.224Z,90.20
2017-11-30T14:46:51.731Z,89.70
2017-11-30T14:49:18.191Z,88.30
2017-11-30T14:51:44.623Z,87.80
2017-11-30T14:54:11.058Z,87.60
2017-11-30T14:56:37.499Z,87.20
2017-11-30T14:59:03.922Z,87.00
2017-11-30T15:01:30.425Z,86.70
2017-11-30T15:03:56.954Z,86.80
2017-11-30T15:06:23.396Z,86.90
2017-11-30T15:08:49.830Z,87.40
2017-11-30T15:11:16.313Z,87.00
2017-11-30T15:13:42.753Z,87.20
2017-11-30T15:16:09.969Z,87.20
2017-11-30T15:18:36.403Z,87.60
2017-11-30T15:21:02.810Z,87.40
2017-11-30T15:23:29.263Z,87.70
2017-11-30T15:25:55.721Z,88.00
2017-11-30T15:28:22.153Z,88.20
2017-11-30T15:30:48.811Z,88.50
2017-11-30T15:33:15.236Z,88.60
2017-11-30T15:35:41.665Z,88.60
2017-11-30T15:38:08.061Z,89.00
2017-11-30T15:40:34.478Z,88.70
2017-11-30T15:43:00.876Z,88.20
2017-11-30T15:45:27.287Z,88.20
2017-11-30T15:47:53.688Z,88.00
2017-11-30T15:50:20.080Z,88.20
2017-11-30T15:52:46.469Z,88.00
2017-11-30T15:55:12.870Z,87.70
2017-11-30T15:57:39.990Z,88.00
2017-11-30T16:00:07.144Z,87.90
2017-11-30T16:02:33.594Z,87.90
2017-11-30T16:04:59.997Z,87.90
2017-11-30T16:07:26.393Z,88.00
2017-11-30T16:09:52.856Z,87.90
2017-11-30T16:12:19.295Z,87.40
2017-11-30T16:14:45.704Z,87.30
2017-11-30T16:17:12.204Z,87.00
2017-11-30T16:19:38.623Z,86.70
2017-11-30T16:22:05.735Z,86.70
2017-11-30T16:24:32.139Z,86.70
2017-11-30T16:26:58.571Z,86.70
2017-11-30T16:29:25.692Z,86.90
2017-11-30T16:31:52.139Z,86.90
2017-11-30T16:34:18.623Z,86.50
2017-11-30T16:36:45.037Z,86.60
2017-11-30T16:39:11.490Z,86.50
2017-11-30T16:41:37.891Z,86.60
2017-11-30T16:44:04.935Z,86.50
2017-11-30T16:46:31.392Z,87.40
2017-11-30T16:48:58.026Z,87.90
2017-11-30T16:51:24.425Z,88.10
2017-11-30T16:53:50.884Z,88.20
2017-11-30T16:56:22.400Z,88.50
2017-11-30T16:58:48.839Z,88.40
2017-11-30T17:01:15.265Z,88.60
2017-11-30T17:03:41.693Z,89.00
2017-11-30T17:06:08.100Z,88.50
2017-11-30T17:08:35.277Z,89.00
2017-11-30T17:11:01.775Z,89.00
2017-11-30T17:13:29.063Z,89.20
2017-11-30T17:15:55.580Z,89.20
2017-11-30T17:18:22.791Z,89.20
2017-11-30T17:20:49.243Z,89.20
2017-11-30T17:23:15.675Z,89.30
2017-11-30T17:25:42.157Z,88.70
2017-11-30T17:28:08.679Z,88.20
2017-11-30T17:30:35.131Z,88.60
2017-11-30T17:33:01.517Z,88.90
2017-11-30T17:35:28.743Z,88.30
2017-11-30T17:37:55.230Z,88.30
2017-11-30T17:40:21.633Z,88.20
2017-11-30T17:42:48.792Z,88.70
2017-11-30T17:45:15.985Z,88.00
2017-11-30T17:47:42.428Z,88.50
2017-11-30T17:50:08.877Z,88.40
2017-11-30T17:52:35.267Z,88.50
2017-11-30T17:55:01.663Z,88.60
2017-11-30T17:57:28.816Z,88.20
2017-11-30T17:59:56.193Z,88.70
2017-11-30T18:02:23.341Z,88.40
2017-11-30T18:04:49.794Z,88.40
2017-11-30T18:07:16.976Z,88.70
2017-11-30T18:09:43.408Z,88.50
2017-11-30T18:12:10.529Z,89.00
2017-11-30T18:14:36.918Z,89.00
2017-11-30T18:17:04.041Z,88.20
2017-11-30T18:19:30.475Z,88.10
2017-11-30T18:21:56.989Z,88.50
2017-11-30T18:24:23.414Z,88.20
2017-11-30T18:26:49.828Z,88.30
2017-11-30T18:29:16.238Z,88.00
2017-11-30T18:31:43.386Z,88.80
2017-11-30T18:34:10.558Z,88.70
2017-11-30T18:36:36.977Z,88.80
2017-11-30T18:39:04.170Z,88.70
2017-11-30T18:41:30.604Z,88.70
2017-11-30T18:43:57.087Z,88.60
2017-11-30T18:46:24.287Z,88.40
2017-11-30T18:48:50.724Z,88.40
2017-11-30T18:51:17.159Z,88.10
2017-11-30T18:53:43.594Z,87.70
2017-11-30T18:56:11.555Z,87.00
2017-11-30T18:58:37.960Z,87.00
2017-11-30T19:01:04.352Z,87.00
2017-11-30T19:03:32.386Z,87.30
2017-11-30T19:05:58.791Z,87.30
2017-11-30T19:08:25.193Z,86.90
2017-11-30T19:10:51.568Z,87.00
2017-11-30T19:13:17.962Z,86.70
2017-11-30T19:15:45.175Z,87.10
2017-11-30T19:18:11.585Z,87.00
2017-11-30T19:20:37.966Z,87.00
2017-11-30T19:23:04.365Z,86.70
2017-11-30T19:25:30.765Z,86.50
2017-11-30T19:27:57.179Z,86.80
2017-11-30T19:30:24.312Z,86.60
2017-11-30T19:32:50.690Z,86.60
2017-11-30T19:35:17.080Z,86.80
2017-11-30T19:37:44.207Z,87.10
2017-11-30T19:40:10.628Z,87.20
2017-11-30T19:42:37.025Z,87.10
2017-11-30T19:45:03.428Z,87.20
2017-11-30T19:47:29.803Z,87.20
2017-11-30T19:49:56.232Z,86.50
2017-11-30T19:52:22.659Z,86.70
2017-11-30T19:54:49.046Z,86.90
2017-11-30T19:57:15.472Z,87.10
2017-11-30T19:59:41.923Z,87.20
2017-11-30T20:02:09.102Z,87.50
2017-11-30T20:04:36.291Z,86.40
2017-11-30T20:07:02.767Z,86.40
2017-11-30T20:09:29.934Z,87.50
2017-11-30T20:11:56.335Z,87.50
2017-11-30T20:14:22.751Z,87.50
2017-11-30T20:16:49.178Z,87.30
2017-11-30T20:19:15.611Z,87.40
2017-11-30T20:21:42.088Z,87.10
2017-11-30T20:24:09.330Z,87.00
2017-11-30T20:26:36.460Z,87.50
2017-11-30T20:29:02.842Z,87.50
2017-11-30T20:31:29.327Z,87.30
2017-11-30T20:33:56.528Z,88.10
2017-11-30T20:36:23.487Z,88.10
2017-11-30T20:38:49.947Z,88.00
2017-11-30T20:41:16.556Z,88.00
2017-11-30T20:43:43.712Z,87.30
2017-11-30T20:46:10.118Z,87.30
2017-11-30T20:48:36.550Z,87.20
2017-11-30T20:51:02.989Z,86.80
2017-11-30T20:53:29.380Z,86.70
2017-11-30T20:55:55.811Z,86.50
2017-11-30T20:58:22.210Z,85.80
2017-11-30T21:00:48.624Z,86.10
2017-11-30T21:03:15.047Z,85.60
2017-11-30T21:05:41.474Z,85.50
2017-11-30T21:08:07.878Z,86.70
2017-11-30T21:10:34.341Z,86.30
2017-11-30T21:13:00.778Z,86.40
2017-11-30T21:15:27.187Z,86.70
2017-11-30T21:17:54.319Z,86.10
2017-11-30T21:20:20.750Z,86.00
2017-11-30T21:22:47.184Z,85.50
2017-11-30T21:25:14.371Z,85.10
2017-11-30T21:27:40.824Z,85.10
2017-11-30T21:30:07.258Z,85.20
2017-11-30T21:32:33.668Z,85.10
2017-11-30T21:35:00.106Z,84.50
2017-11-30T21:37:27.216Z,84.50
2017-11-30T21:39:53.607Z,84.40
2017-11-30T21:42:20.003Z,85.10
2017-11-30T21:44:46.406Z,84.70
2017-11-30T21:47:12.859Z,84.50
2017-11-30T21:49:39.975Z,84.80
2017-11-30T21:52:06.385Z,84.80
2017-11-30T21:54:32.812Z,84.10
2017-11-30T21:56:59.280Z,84.60
2017-11-30T21:59:25.659Z,84.60
2017-11-30T22:01:52.091Z,84.50
2017-11-30T22:04:18.483Z,84.00
2017-11-30T22:06:44.914Z,84.10
2017-11-30T22:09:11.303Z,85.00
2017-11-30T22:11:37.700Z,84.60
2017-11-30T22:14:04.841Z,83.90
2017-11-30T22:16:31.215Z,83.90
2017-11-30T22:18:57.625Z,84.70
2017-11-30T22:21:24.050Z,84.20
2017-11-30T22:23:51.186Z,84.40
2017-11-30T22:26:17.575Z,84.40
2017-11-30T22:28:43.989Z,84.60
2017-11-30T22:31:10.418Z,84.40
2017-11-30T22:33:36.815Z,84.10
2017-11-30T22:36:03.240Z,84.10
2017-11-30T22:38:29.676Z,84.30
2017-11-30T22:40:56.798Z,85.10
2017-11-30T22:43:23.219Z,84.40
2017-11-30T22:45:49.650Z,84.20
2017-11-30T22:48:16.091Z,84.50
2017-11-30T22:50:42.519Z,84.30
2017-11-30T22:53:08.912Z,84.20
2017-11-30T22:55:35.347Z,84.20
2017-11-30T22:58:01.749Z,84.50
2017-11-30T23:00:40.362Z,84.50
2017-11-30T23:03:06.732Z,84.40
2017-11-30T23:05:33.131Z,84.10
2017-11-30T23:07:59.528Z,83.70
2017-11-30T23:10:25.967Z,83.60
2017-11-30T23:12:52.358Z,84.20
2017-11-30T23:15:18.752Z,84.50
2017-11-30T23:17:45.172Z,84.60
2017-11-30T23:20:11.575Z,85.00
2017-11-30T23:22:38.005Z,84.80
2017-11-30T23:25:04.404Z,84.70
2017-11-30T23:27:31.535Z,83.60
2017-11-30T23:29:58.009Z,83.50
2017-11-30T23:32:24.436Z,83.00
2017-11-30T23:34:50.878Z,83.40
2017-11-30T23:37:17.291Z,84.70
2017-11-30T23:39:44.489Z,86.20
2017-11-30T23:42:10.963Z,86.20
2017-11-30T23:44:38.117Z,87.00
2017-11-30T23:47:05.262Z,86.30
2017-11-30T23:49:32.473Z,85.10
2017-11-30T23:51:58.894Z,85.00
2017-11-30T23:54:25.317Z,84.50
2017-11-30T23:56:51.786Z,85.20
2017-11-30T23:59:18.183Z,84.80
